sensor_id;sensor_type;location;lat;lon;timestamp;pressure;altitude;pressure_sealevel;temperature;humidity
76229;BME280;65021;53.174;18.160;2023-03-01T00:00:50;102627.95;;;-3.78;76.12
76229;BME280;65021;53.174;18.160;2023-03-01T00:03:22;102627.98;;;-3.73;75.26
76229;BME280;65021;53.174;18.160;2023-03-01T00:05:49;102624.64;;;-3.72;75.03
76229;BME280;65021;53.174;18.160;2023-03-01T00:08:15;102634.23;;;-3.70;74.89
76229;BME280;65021;53.174;18.160;2023-03-01T00:10:42;102634.31;;;-3.68;75.00
76229;BME280;65021;53.174;18.160;2023-03-01T00:13:09;102635.11;;;-3.67;74.94
76229;BME280;65021;53.174;18.160;2023-03-01T00:15:40;102636.55;;;-3.67;74.99
76229;BME280;65021;53.174;18.160;2023-03-01T00:18:07;102627.45;;;-3.68;75.03
76229;BME280;65021;53.174;18.160;2023-03-01T00:20:34;102622.06;;;-3.72;75.17
76229;BME280;65021;53.174;18.160;2023-03-01T00:23:01;102618.12;;;-3.77;75.61
76229;BME280;65021;53.174;18.160;2023-03-01T00:25:27;102615.48;;;-3.78;76.08
76229;BME280;65021;53.174;18.160;2023-03-01T00:27:54;102617.48;;;-3.76;77.14
76229;BME280;65021;53.174;18.160;2023-03-01T00:30:21;102619.23;;;-3.75;76.33
76229;BME280;65021;53.174;18.160;2023-03-01T00:32:47;102620.42;;;-3.76;76.09
76229;BME280;65021;53.174;18.160;2023-03-01T00:35:14;102621.07;;;-3.75;75.89
76229;BME280;65021;53.174;18.160;2023-03-01T00:37:40;102619.33;;;-3.76;75.49
76229;BME280;65021;53.174;18.160;2023-03-01T00:40:08;102619.16;;;-3.79;75.26
76229;BME280;65021;53.174;18.160;2023-03-01T00:42:36;102613.42;;;-3.80;75.20
76229;BME280;65021;53.174;18.160;2023-03-01T00:45:03;102611.16;;;-3.79;75.42
76229;BME280;65021;53.174;18.160;2023-03-01T00:47:29;102607.60;;;-3.79;75.26
76229;BME280;65021;53.174;18.160;2023-03-01T00:49:56;102610.73;;;-3.85;75.17
76229;BME280;65021;53.174;18.160;2023-03-01T00:52:23;102609.52;;;-3.93;75.30
76229;BME280;65021;53.174;18.160;2023-03-01T00:54:52;102603.54;;;-4.04;75.42
76229;BME280;65021;53.174;18.160;2023-03-01T00:57:18;102595.90;;;-4.13;75.56
76229;BME280;65021;53.174;18.160;2023-03-01T00:59:45;102592.64;;;-4.24;75.59
76229;BME280;65021;53.174;18.160;2023-03-01T01:02:11;102595.95;;;-4.32;75.84
76229;BME280;65021;53.174;18.160;2023-03-01T01:04:38;102593.77;;;-4.37;75.72
76229;BME280;65021;53.174;18.160;2023-03-01T01:07:04;102585.61;;;-4.39;75.83
76229;BME280;65021;53.174;18.160;2023-03-01T01:09:31;102580.91;;;-4.39;75.73
76229;BME280;65021;53.174;18.160;2023-03-01T01:11:58;102579.52;;;-4.40;75.80
76229;BME280;65021;53.174;18.160;2023-03-01T01:14:24;102579.39;;;-4.41;76.02
76229;BME280;65021;53.174;18.160;2023-03-01T01:16:52;102572.13;;;-4.38;75.95
76229;BME280;65021;53.174;18.160;2023-03-01T01:19:19;102572.19;;;-4.36;75.84
76229;BME280;65021;53.174;18.160;2023-03-01T01:21:45;102572.61;;;-4.37;75.75
76229;BME280;65021;53.174;18.160;2023-03-01T01:24:13;102568.45;;;-4.42;75.74
76229;BME280;65021;53.174;18.160;2023-03-01T01:26:40;102559.48;;;-4.43;75.93
76229;BME280;65021;53.174;18.160;2023-03-01T01:29:08;102554.70;;;-4.42;75.94
76229;BME280;65021;53.174;18.160;2023-03-01T01:31:36;102554.80;;;-4.39;75.86
76229;BME280;65021;53.174;18.160;2023-03-01T01:34:04;102551.92;;;-4.36;75.79
76229;BME280;65021;53.174;18.160;2023-03-01T01:36:32;102547.34;;;-4.35;75.70
76229;BME280;65021;53.174;18.160;2023-03-01T01:38:59;102545.13;;;-4.30;75.76
76229;BME280;65021;53.174;18.160;2023-03-01T01:41:28;102541.58;;;-4.21;75.62
76229;BME280;65021;53.174;18.160;2023-03-01T01:44:15;102546.02;;;-4.12;75.66
76229;BME280;65021;53.174;18.160;2023-03-01T01:46:53;102549.08;;;-4.12;75.63
76229;BME280;65021;53.174;18.160;2023-03-01T01:52:18;102536.00;;;-4.13;75.92
76229;BME280;65021;53.174;18.160;2023-03-01T01:55:03;102532.82;;;-4.12;75.76
76229;BME280;65021;53.174;18.160;2023-03-01T01:57:36;102525.56;;;-4.10;75.77
76229;BME280;65021;53.174;18.160;2023-03-01T02:00:16;102527.71;;;-4.09;75.72
76229;BME280;65021;53.174;18.160;2023-03-01T02:02:46;102532.73;;;-4.11;75.68
76229;BME280;65021;53.174;18.160;2023-03-01T02:05:25;102532.71;;;-4.16;75.75
76229;BME280;65021;53.174;18.160;2023-03-01T02:07:53;102530.80;;;-4.14;75.74
76229;BME280;65021;53.174;18.160;2023-03-01T02:10:21;102537.41;;;-4.10;75.75
76229;BME280;65021;53.174;18.160;2023-03-01T02:12:49;102536.24;;;-4.07;75.75
76229;BME280;65021;53.174;18.160;2023-03-01T02:15:16;102534.97;;;-4.09;75.74
76229;BME280;65021;53.174;18.160;2023-03-01T02:17:43;102528.67;;;-4.10;75.89
76229;BME280;65021;53.174;18.160;2023-03-01T02:20:26;102538.55;;;-4.11;76.00
76229;BME280;65021;53.174;18.160;2023-03-01T02:22:53;102534.61;;;-4.14;76.00
76229;BME280;65021;53.174;18.160;2023-03-01T02:25:38;102530.96;;;-4.17;76.08
76229;BME280;65021;53.174;18.160;2023-03-01T02:30:50;102528.99;;;-4.22;76.19
76229;BME280;65021;53.174;18.160;2023-03-01T02:33:43;102521.27;;;-4.23;76.10
76229;BME280;65021;53.174;18.160;2023-03-01T02:36:14;102514.94;;;-4.23;76.08
76229;BME280;65021;53.174;18.160;2023-03-01T02:38:42;102510.00;;;-4.24;76.16
76229;BME280;65021;53.174;18.160;2023-03-01T02:41:12;102506.18;;;-4.24;76.10
76229;BME280;65021;53.174;18.160;2023-03-01T02:43:40;102504.25;;;-4.25;76.29
76229;BME280;65021;53.174;18.160;2023-03-01T02:46:19;102500.64;;;-4.23;76.18
76229;BME280;65021;53.174;18.160;2023-03-01T02:48:52;102504.69;;;-4.21;76.15
76229;BME280;65021;53.174;18.160;2023-03-01T02:54:21;102493.30;;;-4.16;76.08
76229;BME280;65021;53.174;18.160;2023-03-01T02:56:49;102492.23;;;-4.19;76.01
76229;BME280;65021;53.174;18.160;2023-03-01T02:59:18;102494.41;;;-4.21;75.97
76229;BME280;65021;53.174;18.160;2023-03-01T03:01:45;102491.80;;;-4.23;76.13
76229;BME280;65021;53.174;18.160;2023-03-01T03:04:17;102496.21;;;-4.26;76.21
76229;BME280;65021;53.174;18.160;2023-03-01T03:06:45;102496.75;;;-4.31;76.31
76229;BME280;65021;53.174;18.160;2023-03-01T03:09:13;102496.60;;;-4.32;76.37
76229;BME280;65021;53.174;18.160;2023-03-01T03:11:40;102498.42;;;-4.27;76.45
76229;BME280;65021;53.174;18.160;2023-03-01T03:14:10;102498.41;;;-4.22;76.26
76229;BME280;65021;53.174;18.160;2023-03-01T03:16:44;102492.69;;;-4.20;76.38
76229;BME280;65021;53.174;18.160;2023-03-01T03:19:11;102493.09;;;-4.13;76.36
76229;BME280;65021;53.174;18.160;2023-03-01T03:21:38;102485.34;;;-4.06;76.35
76229;BME280;65021;53.174;18.160;2023-03-01T03:24:05;102484.13;;;-3.97;76.39
76229;BME280;65021;53.174;18.160;2023-03-01T03:26:32;102479.70;;;-3.86;76.34
76229;BME280;65021;53.174;18.160;2023-03-01T03:28:59;102474.41;;;-3.78;76.28
76229;BME280;65021;53.174;18.160;2023-03-01T03:31:25;102469.82;;;-3.73;76.33
76229;BME280;65021;53.174;18.160;2023-03-01T03:33:52;102462.28;;;-3.66;76.33
76229;BME280;65021;53.174;18.160;2023-03-01T03:36:21;102460.34;;;-3.62;76.47
76229;BME280;65021;53.174;18.160;2023-03-01T03:38:48;102451.42;;;-3.59;76.39
76229;BME280;65021;53.174;18.160;2023-03-01T03:41:16;102450.25;;;-3.56;76.35
76229;BME280;65021;53.174;18.160;2023-03-01T03:43:43;102446.23;;;-3.53;76.28
76229;BME280;65021;53.174;18.160;2023-03-01T03:46:11;102445.65;;;-3.50;76.46
76229;BME280;65021;53.174;18.160;2023-03-01T03:48:40;102449.39;;;-3.47;76.37
76229;BME280;65021;53.174;18.160;2023-03-01T03:51:10;102453.77;;;-3.45;76.43
76229;BME280;65021;53.174;18.160;2023-03-01T03:53:37;102456.94;;;-3.44;76.46
76229;BME280;65021;53.174;18.160;2023-03-01T03:56:04;102459.48;;;-3.41;76.50
76229;BME280;65021;53.174;18.160;2023-03-01T03:58:31;102464.73;;;-3.39;76.31
76229;BME280;65021;53.174;18.160;2023-03-01T04:00:59;102466.40;;;-3.39;76.22
76229;BME280;65021;53.174;18.160;2023-03-01T04:03:28;102468.30;;;-3.41;76.14
76229;BME280;65021;53.174;18.160;2023-03-01T04:05:57;102471.77;;;-3.43;76.15
76229;BME280;65021;53.174;18.160;2023-03-01T04:08:24;102468.15;;;-3.46;76.11
76229;BME280;65021;53.174;18.160;2023-03-01T04:10:53;102472.14;;;-3.48;75.99
76229;BME280;65021;53.174;18.160;2023-03-01T04:13:22;102474.98;;;-3.50;76.03
76229;BME280;65021;53.174;18.160;2023-03-01T04:15:49;102471.73;;;-3.52;76.17
76229;BME280;65021;53.174;18.160;2023-03-01T04:18:18;102469.79;;;-3.55;76.06
76229;BME280;65021;53.174;18.160;2023-03-01T04:20:46;102470.86;;;-3.60;76.19
76229;BME280;65021;53.174;18.160;2023-03-01T04:23:15;102468.63;;;-3.64;76.29
76229;BME280;65021;53.174;18.160;2023-03-01T04:25:51;102460.88;;;-3.67;76.41
76229;BME280;65021;53.174;18.160;2023-03-01T04:30:48;102451.90;;;-3.73;76.50
76229;BME280;65021;53.174;18.160;2023-03-01T04:33:14;102451.38;;;-3.76;76.52
76229;BME280;65021;53.174;18.160;2023-03-01T04:35:41;102450.35;;;-3.78;76.36
76229;BME280;65021;53.174;18.160;2023-03-01T04:38:08;102450.98;;;-3.82;76.52
76229;BME280;65021;53.174;18.160;2023-03-01T04:40:35;102450.04;;;-3.86;76.72
76229;BME280;65021;53.174;18.160;2023-03-01T04:43:03;102449.31;;;-3.89;76.64
76229;BME280;65021;53.174;18.160;2023-03-01T04:45:32;102451.52;;;-3.89;76.69
76229;BME280;65021;53.174;18.160;2023-03-01T04:47:58;102444.73;;;-3.90;76.57
76229;BME280;65021;53.174;18.160;2023-03-01T04:50:25;102445.45;;;-3.90;76.66
76229;BME280;65021;53.174;18.160;2023-03-01T04:52:52;102438.98;;;-3.89;76.51
76229;BME280;65021;53.174;18.160;2023-03-01T04:55:19;102428.70;;;-3.87;76.49
76229;BME280;65021;53.174;18.160;2023-03-01T04:57:45;102430.86;;;-3.87;76.55
76229;BME280;65021;53.174;18.160;2023-03-01T05:00:13;102430.49;;;-3.86;76.45
76229;BME280;65021;53.174;18.160;2023-03-01T05:05:40;102435.55;;;-3.86;76.62
76229;BME280;65021;53.174;18.160;2023-03-01T05:08:07;102438.25;;;-3.86;76.70
76229;BME280;65021;53.174;18.160;2023-03-01T05:10:35;102440.17;;;-3.88;77.10
76229;BME280;65021;53.174;18.160;2023-03-01T05:13:03;102441.42;;;-3.90;77.00
76229;BME280;65021;53.174;18.160;2023-03-01T05:15:31;102442.38;;;-3.93;77.02
76229;BME280;65021;53.174;18.160;2023-03-01T05:17:59;102441.36;;;-3.96;76.88
76229;BME280;65021;53.174;18.160;2023-03-01T05:20:27;102438.64;;;-3.99;77.11
76229;BME280;65021;53.174;18.160;2023-03-01T05:22:57;102443.27;;;-4.00;76.97
76229;BME280;65021;53.174;18.160;2023-03-01T05:25:25;102443.00;;;-4.02;77.08
76229;BME280;65021;53.174;18.160;2023-03-01T05:27:52;102438.59;;;-4.03;77.00
76229;BME280;65021;53.174;18.160;2023-03-01T05:30:19;102434.91;;;-4.03;76.83
76229;BME280;65021;53.174;18.160;2023-03-01T05:32:48;102434.52;;;-4.00;76.76
76229;BME280;65021;53.174;18.160;2023-03-01T05:35:17;102436.52;;;-3.97;76.93
76229;BME280;65021;53.174;18.160;2023-03-01T05:37:45;102435.02;;;-3.94;77.07
76229;BME280;65021;53.174;18.160;2023-03-01T05:40:15;102437.39;;;-3.92;77.11
76229;BME280;65021;53.174;18.160;2023-03-01T05:42:47;102439.35;;;-3.89;76.92
76229;BME280;65021;53.174;18.160;2023-03-01T05:45:15;102439.45;;;-3.85;76.79
76229;BME280;65021;53.174;18.160;2023-03-01T05:47:44;102437.30;;;-3.81;76.82
76229;BME280;65021;53.174;18.160;2023-03-01T05:52:39;102444.09;;;-3.70;76.89
76229;BME280;65021;53.174;18.160;2023-03-01T05:55:06;102445.17;;;-3.63;76.75
76229;BME280;65021;53.174;18.160;2023-03-01T05:57:33;102442.54;;;-3.57;76.63
76229;BME280;65021;53.174;18.160;2023-03-01T06:00:00;102444.98;;;-3.50;76.75
76229;BME280;65021;53.174;18.160;2023-03-01T06:02:26;102445.63;;;-3.45;76.68
76229;BME280;65021;53.174;18.160;2023-03-01T06:04:53;102436.09;;;-3.39;76.90
76229;BME280;65021;53.174;18.160;2023-03-01T06:07:20;102436.63;;;-3.31;76.71
76229;BME280;65021;53.174;18.160;2023-03-01T06:09:46;102434.99;;;-3.24;76.71
76229;BME280;65021;53.174;18.160;2023-03-01T06:12:13;102438.77;;;-3.17;76.94
76229;BME280;65021;53.174;18.160;2023-03-01T06:14:39;102442.86;;;-3.06;76.72
76229;BME280;65021;53.174;18.160;2023-03-01T06:17:06;102444.83;;;-2.97;76.82
76229;BME280;65021;53.174;18.160;2023-03-01T06:19:32;102447.78;;;-2.86;76.65
76229;BME280;65021;53.174;18.160;2023-03-01T06:21:59;102446.03;;;-2.75;76.58
76229;BME280;65021;53.174;18.160;2023-03-01T06:24:25;102445.88;;;-2.64;76.49
76229;BME280;65021;53.174;18.160;2023-03-01T06:26:52;102450.29;;;-2.53;76.45
76229;BME280;65021;53.174;18.160;2023-03-01T06:29:19;102449.04;;;-2.42;76.33
76229;BME280;65021;53.174;18.160;2023-03-01T06:31:45;102445.40;;;-2.31;76.36
76229;BME280;65021;53.174;18.160;2023-03-01T06:34:12;102446.88;;;-2.20;76.33
76229;BME280;65021;53.174;18.160;2023-03-01T06:36:40;102451.05;;;-2.09;76.39
76229;BME280;65021;53.174;18.160;2023-03-01T06:39:07;102448.98;;;-1.99;76.24
76229;BME280;65021;53.174;18.160;2023-03-01T06:41:33;102453.95;;;-1.89;76.25
76229;BME280;65021;53.174;18.160;2023-03-01T06:44:00;102454.88;;;-1.80;75.97
76229;BME280;65021;53.174;18.160;2023-03-01T06:46:27;102459.31;;;-1.70;76.07
76229;BME280;65021;53.174;18.160;2023-03-01T06:48:53;102456.70;;;-1.61;75.92
76229;BME280;65021;53.174;18.160;2023-03-01T06:51:20;102449.95;;;-1.52;75.92
76229;BME280;65021;53.174;18.160;2023-03-01T06:53:46;102435.46;;;-1.42;75.88
76229;BME280;65021;53.174;18.160;2023-03-01T06:56:13;102432.55;;;-1.31;75.78
76229;BME280;65021;53.174;18.160;2023-03-01T06:58:40;102434.98;;;-1.21;75.76
76229;BME280;65021;53.174;18.160;2023-03-01T07:01:07;102431.95;;;-1.11;75.61
76229;BME280;65021;53.174;18.160;2023-03-01T07:03:34;102432.20;;;-1.02;75.59
76229;BME280;65021;53.174;18.160;2023-03-01T07:06:01;102429.80;;;-0.93;75.62
76229;BME280;65021;53.174;18.160;2023-03-01T07:08:27;102425.32;;;-0.81;75.46
76229;BME280;65021;53.174;18.160;2023-03-01T07:10:55;102425.20;;;-0.65;75.31
76229;BME280;65021;53.174;18.160;2023-03-01T07:13:22;102422.35;;;-0.49;75.22
76229;BME280;65021;53.174;18.160;2023-03-01T07:15:49;102416.30;;;-0.31;75.22
76229;BME280;65021;53.174;18.160;2023-03-01T07:18:15;102406.65;;;-0.10;75.05
76229;BME280;65021;53.174;18.160;2023-03-01T07:20:42;102409.58;;;0.09;74.95
76229;BME280;65021;53.174;18.160;2023-03-01T07:23:08;102409.31;;;0.26;74.52
76229;BME280;65021;53.174;18.160;2023-03-01T07:25:35;102404.11;;;0.39;74.26
76229;BME280;65021;53.174;18.160;2023-03-01T07:28:02;102400.54;;;0.52;74.51
76229;BME280;65021;53.174;18.160;2023-03-01T07:30:28;102397.18;;;0.64;74.20
76229;BME280;65021;53.174;18.160;2023-03-01T07:32:56;102393.75;;;0.76;73.95
76229;BME280;65021;53.174;18.160;2023-03-01T07:35:25;102392.51;;;0.87;73.94
76229;BME280;65021;53.174;18.160;2023-03-01T07:37:53;102393.36;;;0.93;73.91
76229;BME280;65021;53.174;18.160;2023-03-01T07:40:19;102388.06;;;1.01;73.62
76229;BME280;65021;53.174;18.160;2023-03-01T07:42:46;102389.33;;;1.14;73.55
76229;BME280;65021;53.174;18.160;2023-03-01T07:45:12;102394.35;;;1.26;72.08
76229;BME280;65021;53.174;18.160;2023-03-01T07:47:40;102396.05;;;1.39;71.52
76229;BME280;65021;53.174;18.160;2023-03-01T07:50:07;102398.01;;;1.49;71.43
76229;BME280;65021;53.174;18.160;2023-03-01T07:52:34;102391.16;;;1.61;71.81
76229;BME280;65021;53.174;18.160;2023-03-01T07:55:00;102390.89;;;1.75;72.21
76229;BME280;65021;53.174;18.160;2023-03-01T07:57:27;102387.63;;;1.89;71.93
76229;BME280;65021;53.174;18.160;2023-03-01T07:59:53;102388.04;;;2.02;71.40
76229;BME280;65021;53.174;18.160;2023-03-01T08:02:20;102388.33;;;2.14;71.91
76229;BME280;65021;53.174;18.160;2023-03-01T08:04:46;102384.23;;;2.29;72.01
76229;BME280;65021;53.174;18.160;2023-03-01T08:07:13;102382.18;;;2.34;70.87
76229;BME280;65021;53.174;18.160;2023-03-01T08:09:39;102373.63;;;2.45;71.85
76229;BME280;65021;53.174;18.160;2023-03-01T08:12:06;102380.51;;;2.52;71.76
76229;BME280;65021;53.174;18.160;2023-03-01T08:14:33;102385.64;;;2.58;71.41
76229;BME280;65021;53.174;18.160;2023-03-01T08:16:59;102390.27;;;2.61;71.23
76229;BME280;65021;53.174;18.160;2023-03-01T08:19:26;102387.88;;;2.56;69.85
76229;BME280;65021;53.174;18.160;2023-03-01T08:21:54;102391.46;;;2.39;68.35
76229;BME280;65021;53.174;18.160;2023-03-01T08:24:21;102385.87;;;2.32;69.09
76229;BME280;65021;53.174;18.160;2023-03-01T08:26:48;102386.92;;;2.38;69.44
76229;BME280;65021;53.174;18.160;2023-03-01T08:29:15;102384.02;;;2.48;70.37
76229;BME280;65021;53.174;18.160;2023-03-01T08:31:41;102383.46;;;2.67;70.98
76229;BME280;65021;53.174;18.160;2023-03-01T08:34:11;102385.73;;;2.84;69.95
76229;BME280;65021;53.174;18.160;2023-03-01T08:36:40;102389.33;;;2.93;69.22
76229;BME280;65021;53.174;18.160;2023-03-01T08:39:08;102390.98;;;3.09;69.08
76229;BME280;65021;53.174;18.160;2023-03-01T08:41:35;102386.53;;;3.27;69.65
76229;BME280;65021;53.174;18.160;2023-03-01T08:44:03;102385.52;;;3.52;70.12
76229;BME280;65021;53.174;18.160;2023-03-01T08:46:34;102383.84;;;3.71;70.07
76229;BME280;65021;53.174;18.160;2023-03-01T08:49:07;102382.80;;;3.86;69.86
76229;BME280;65021;53.174;18.160;2023-03-01T08:51:35;102383.35;;;3.91;68.53
76229;BME280;65021;53.174;18.160;2023-03-01T08:54:10;102377.27;;;3.98;68.54
76229;BME280;65021;53.174;18.160;2023-03-01T08:56:38;102379.42;;;4.14;69.59
76229;BME280;65021;53.174;18.160;2023-03-01T08:59:05;102380.08;;;4.29;69.45
76229;BME280;65021;53.174;18.160;2023-03-01T09:01:32;102377.77;;;4.42;69.07
76229;BME280;65021;53.174;18.160;2023-03-01T09:03:59;102379.94;;;4.59;69.53
76229;BME280;65021;53.174;18.160;2023-03-01T09:06:26;102375.98;;;4.70;68.80
76229;BME280;65021;53.174;18.160;2023-03-01T09:08:52;102376.68;;;4.78;69.45
76229;BME280;65021;53.174;18.160;2023-03-01T09:11:21;102379.20;;;4.87;69.00
76229;BME280;65021;53.174;18.160;2023-03-01T09:13:48;102377.90;;;4.89;67.91
76229;BME280;65021;53.174;18.160;2023-03-01T09:16:17;102374.91;;;4.94;68.06
76229;BME280;65021;53.174;18.160;2023-03-01T09:18:49;102369.06;;;5.00;68.01
76229;BME280;65021;53.174;18.160;2023-03-01T09:21:17;102368.83;;;4.99;66.81
76229;BME280;65021;53.174;18.160;2023-03-01T09:23:47;102372.34;;;4.89;66.68
76229;BME280;65021;53.174;18.160;2023-03-01T09:26:16;102377.14;;;4.91;67.54
76229;BME280;65021;53.174;18.160;2023-03-01T09:28:46;102373.06;;;5.01;68.08
76229;BME280;65021;53.174;18.160;2023-03-01T09:31:13;102369.20;;;5.05;67.53
76229;BME280;65021;53.174;18.160;2023-03-01T09:33:41;102372.04;;;5.15;68.68
76229;BME280;65021;53.174;18.160;2023-03-01T09:36:13;102366.08;;;5.25;68.32
76229;BME280;65021;53.174;18.160;2023-03-01T09:38:40;102362.08;;;5.36;68.06
76229;BME280;65021;53.174;18.160;2023-03-01T09:44:21;102357.30;;;5.50;66.89
76229;BME280;65021;53.174;18.160;2023-03-01T09:46:51;102354.49;;;5.57;67.38
76229;BME280;65021;53.174;18.160;2023-03-01T09:49:21;102356.52;;;5.62;66.47
76229;BME280;65021;53.174;18.160;2023-03-01T09:54:31;102359.34;;;5.66;65.35
76229;BME280;65021;53.174;18.160;2023-03-01T10:00:23;102358.15;;;5.76;66.83
76229;BME280;65021;53.174;18.160;2023-03-01T10:02:58;102360.90;;;5.82;65.70
76229;BME280;65021;53.174;18.160;2023-03-01T10:05:36;102356.52;;;5.87;65.41
76229;BME280;65021;53.174;18.160;2023-03-01T10:10:35;102348.94;;;6.08;65.55
76229;BME280;65021;53.174;18.160;2023-03-01T10:13:10;102338.90;;;6.15;65.48
76229;BME280;65021;53.174;18.160;2023-03-01T10:15:48;102329.96;;;6.24;65.15
76229;BME280;65021;53.174;18.160;2023-03-01T10:18:19;102324.33;;;6.26;64.66
76229;BME280;65021;53.174;18.160;2023-03-01T10:23:17;102309.74;;;6.46;65.64
76229;BME280;65021;53.174;18.160;2023-03-01T10:31:53;102296.73;;;6.58;63.26
76229;BME280;65021;53.174;18.160;2023-03-01T10:34:32;102294.15;;;6.66;65.06
76229;BME280;65021;53.174;18.160;2023-03-01T10:37:17;102289.98;;;6.74;64.02
76229;BME280;65021;53.174;18.160;2023-03-01T10:42:29;102292.27;;;6.95;63.31
76229;BME280;65021;53.174;18.160;2023-03-01T10:44:57;102283.80;;;6.92;62.80
76229;BME280;65021;53.174;18.160;2023-03-01T10:47:26;102278.63;;;7.01;64.17
76229;BME280;65021;53.174;18.160;2023-03-01T10:52:24;102272.81;;;7.20;63.68
76229;BME280;65021;53.174;18.160;2023-03-01T10:54:53;102268.96;;;7.22;62.52
76229;BME280;65021;53.174;18.160;2023-03-01T10:57:40;102263.08;;;7.20;62.80
76229;BME280;65021;53.174;18.160;2023-03-01T11:00:25;102267.45;;;7.32;62.68
76229;BME280;65021;53.174;18.160;2023-03-01T11:05:25;102262.02;;;7.32;62.63
76229;BME280;65021;53.174;18.160;2023-03-01T11:07:55;102261.54;;;7.39;61.87
76229;BME280;65021;53.174;18.160;2023-03-01T11:10:24;102259.08;;;7.29;60.35
76229;BME280;65021;53.174;18.160;2023-03-01T11:12:53;102258.77;;;7.36;61.70
76229;BME280;65021;53.174;18.160;2023-03-01T11:15:23;102256.84;;;7.41;60.93
76229;BME280;65021;53.174;18.160;2023-03-01T11:17:50;102249.98;;;7.41;60.55
76229;BME280;65021;53.174;18.160;2023-03-01T11:20:30;102256.96;;;7.33;59.85
76229;BME280;65021;53.174;18.160;2023-03-01T11:23:02;102257.42;;;7.41;61.03
76229;BME280;65021;53.174;18.160;2023-03-01T11:25:34;102260.61;;;7.38;59.79
76229;BME280;65021;53.174;18.160;2023-03-01T11:28:04;102259.37;;;7.40;60.34
76229;BME280;65021;53.174;18.160;2023-03-01T11:30:33;102254.13;;;7.49;60.39
76229;BME280;65021;53.174;18.160;2023-03-01T11:35:41;102245.45;;;7.60;59.88
76229;BME280;65021;53.174;18.160;2023-03-01T11:38:20;102240.45;;;7.58;57.16
76229;BME280;65021;53.174;18.160;2023-03-01T11:40:54;102236.55;;;7.63;59.17
76229;BME280;65021;53.174;18.160;2023-03-01T11:51:51;102237.02;;;7.73;58.49
76229;BME280;65021;53.174;18.160;2023-03-01T12:00:14;102238.61;;;7.95;59.97
76229;BME280;65021;53.174;18.160;2023-03-01T12:09:01;102246.69;;;7.97;57.86
76229;BME280;65021;53.174;18.160;2023-03-01T12:20:55;102247.78;;;7.50;58.27
76229;BME280;65021;53.174;18.160;2023-03-01T12:29:48;102243.71;;;7.69;59.37
76229;BME280;65021;53.174;18.160;2023-03-01T12:46:51;102225.00;;;7.67;59.13
76229;BME280;65021;53.174;18.160;2023-03-01T12:49:28;102218.65;;;7.69;59.50
76229;BME280;65021;53.174;18.160;2023-03-01T12:52:00;102221.90;;;7.74;59.28
76229;BME280;65021;53.174;18.160;2023-03-01T12:54:30;102214.04;;;7.79;59.22
76229;BME280;65021;53.174;18.160;2023-03-01T12:57:02;102209.25;;;7.83;59.74
76229;BME280;65021;53.174;18.160;2023-03-01T12:59:46;102212.23;;;7.77;58.63
76229;BME280;65021;53.174;18.160;2023-03-01T13:07:58;102206.95;;;7.74;59.25
76229;BME280;65021;53.174;18.160;2023-03-01T13:10:35;102209.88;;;7.80;59.00
76229;BME280;65021;53.174;18.160;2023-03-01T13:13:24;102207.94;;;7.81;58.99
76229;BME280;65021;53.174;18.160;2023-03-01T13:15:52;102206.73;;;7.80;59.11
76229;BME280;65021;53.174;18.160;2023-03-01T13:20:48;102202.21;;;7.76;58.73
76229;BME280;65021;53.174;18.160;2023-03-01T13:31:06;102206.96;;;7.84;59.08
76229;BME280;65021;53.174;18.160;2023-03-01T13:33:47;102203.63;;;7.89;59.06
76229;BME280;65021;53.174;18.160;2023-03-01T13:39:20;102193.34;;;7.94;59.48
76229;BME280;65021;53.174;18.160;2023-03-01T13:41:54;102193.52;;;7.97;59.43
76229;BME280;65021;53.174;18.160;2023-03-01T13:44:37;102193.36;;;7.99;59.04
76229;BME280;65021;53.174;18.160;2023-03-01T13:49:57;102189.50;;;8.02;58.05
76229;BME280;65021;53.174;18.160;2023-03-01T13:52:34;102182.55;;;8.04;58.57
76229;BME280;65021;53.174;18.160;2023-03-01T13:55:05;102176.52;;;8.03;58.99
76229;BME280;65021;53.174;18.160;2023-03-01T13:57:34;102178.60;;;7.99;58.15
76229;BME280;65021;53.174;18.160;2023-03-01T14:00:03;102178.05;;;7.99;58.69
76229;BME280;65021;53.174;18.160;2023-03-01T14:02:31;102174.05;;;7.94;58.31
76229;BME280;65021;53.174;18.160;2023-03-01T14:04:59;102171.43;;;7.92;58.70
76229;BME280;65021;53.174;18.160;2023-03-01T14:07:27;102171.24;;;7.89;58.68
76229;BME280;65021;53.174;18.160;2023-03-01T14:10:03;102176.73;;;7.89;58.59
76229;BME280;65021;53.174;18.160;2023-03-01T14:12:36;102176.02;;;7.89;59.06
76229;BME280;65021;53.174;18.160;2023-03-01T14:18:26;102168.02;;;7.85;59.13
76229;BME280;65021;53.174;18.160;2023-03-01T14:20:55;102165.30;;;7.83;59.34
76229;BME280;65021;53.174;18.160;2023-03-01T14:23:23;102162.13;;;7.81;59.48
76229;BME280;65021;53.174;18.160;2023-03-01T14:25:59;102163.19;;;7.74;59.28
76229;BME280;65021;53.174;18.160;2023-03-01T14:28:26;102162.55;;;7.68;59.07
76229;BME280;65021;53.174;18.160;2023-03-01T14:30:56;102154.08;;;7.63;59.21
76229;BME280;65021;53.174;18.160;2023-03-01T14:33:34;102159.05;;;7.60;59.40
76229;BME280;65021;53.174;18.160;2023-03-01T14:38:35;102159.11;;;7.55;59.52
76229;BME280;65021;53.174;18.160;2023-03-01T14:41:10;102154.54;;;7.51;59.90
76229;BME280;65021;53.174;18.160;2023-03-01T14:43:41;102155.63;;;7.44;60.21
76229;BME280;65021;53.174;18.160;2023-03-01T14:46:43;102151.59;;;7.41;60.36
76229;BME280;65021;53.174;18.160;2023-03-01T14:49:21;102155.36;;;7.34;60.60
76229;BME280;65021;53.174;18.160;2023-03-01T14:51:59;102150.72;;;7.27;60.85
76229;BME280;65021;53.174;18.160;2023-03-01T14:54:42;102147.42;;;7.22;60.85
76229;BME280;65021;53.174;18.160;2023-03-01T14:57:20;102145.70;;;7.16;60.89
76229;BME280;65021;53.174;18.160;2023-03-01T14:59:52;102145.04;;;7.08;61.24
76229;BME280;65021;53.174;18.160;2023-03-01T15:02:23;102145.02;;;7.03;61.28